sensor_id;sensor_type;location;lat;lon;timestamp;temperature;humidity
35497;DHT22;21609;49.298;6.844;2023-11-21T00:02:02;19.60;55.30
35497;DHT22;21609;49.298;6.844;2023-11-21T00:04:29;19.60;55.20
35497;DHT22;21609;49.298;6.844;2023-11-21T00:06:55;19.60;55.20
35497;DHT22;21609;49.298;6.844;2023-11-21T00:09:21;19.60;55.30
35497;DHT22;21609;49.298;6.844;2023-11-21T00:11:47;19.60;55.20
35497;DHT22;21609;49.298;6.844;2023-11-21T00:14:12;19.50;55.30
35497;DHT22;21609;49.298;6.844;2023-11-21T00:16:41;19.50;55.20
35497;DHT22;21609;49.298;6.844;2023-11-21T00:19:07;19.50;55.30
35497;DHT22;21609;49.298;6.844;2023-11-21T00:21:32;19.50;55.40
35497;DHT22;21609;49.298;6.844;2023-11-21T00:23:58;19.50;55.50
35497;DHT22;21609;49.298;6.844;2023-11-21T00:26:23;19.50;55.40
35497;DHT22;21609;49.298;6.844;2023-11-21T00:28:50;19.40;55.30
35497;DHT22;21609;49.298;6.844;2023-11-21T00:31:15;19.40;55.30
35497;DHT22;21609;49.298;6.844;2023-11-21T00:33:41;19.40;55.50
35497;DHT22;21609;49.298;6.844;2023-11-21T00:36:07;19.40;55.60
35497;DHT22;21609;49.298;6.844;2023-11-21T00:38:35;19.40;55.50
35497;DHT22;21609;49.298;6.844;2023-11-21T00:41:01;19.40;55.50
35497;DHT22;21609;49.298;6.844;2023-11-21T00:43:26;19.40;55.50
35497;DHT22;21609;49.298;6.844;2023-11-21T00:45:52;19.40;55.50
35497;DHT22;21609;49.298;6.844;2023-11-21T00:48:17;19.40;55.60
35497;DHT22;21609;49.298;6.844;2023-11-21T00:50:44;19.30;55.60
35497;DHT22;21609;49.298;6.844;2023-11-21T00:53:09;19.30;55.80
35497;DHT22;21609;49.298;6.844;2023-11-21T00:55:36;19.30;55.70
35497;DHT22;21609;49.298;6.844;2023-11-21T00:58:02;19.30;55.60
35497;DHT22;21609;49.298;6.844;2023-11-21T01:00:29;19.30;55.70
35497;DHT22;21609;49.298;6.844;2023-11-21T01:02:55;19.30;55.70
35497;DHT22;21609;49.298;6.844;2023-11-21T01:05:20;19.20;55.70
35497;DHT22;21609;49.298;6.844;2023-11-21T01:07:46;19.20;55.70
35497;DHT22;21609;49.298;6.844;2023-11-21T01:10:11;19.20;55.80
35497;DHT22;21609;49.298;6.844;2023-11-21T01:12:38;19.20;55.80
35497;DHT22;21609;49.298;6.844;2023-11-21T01:15:05;19.20;55.60
35497;DHT22;21609;49.298;6.844;2023-11-21T01:17:34;19.20;56.40
35497;DHT22;21609;49.298;6.844;2023-11-21T01:20:00;19.20;55.80
35497;DHT22;21609;49.298;6.844;2023-11-21T01:22:26;19.20;55.60
35497;DHT22;21609;49.298;6.844;2023-11-21T01:24:53;19.20;56.80
35497;DHT22;21609;49.298;6.844;2023-11-21T01:27:19;19.20;56.30
35497;DHT22;21609;49.298;6.844;2023-11-21T01:29:44;19.20;56.40
35497;DHT22;21609;49.298;6.844;2023-11-21T01:32:10;19.20;56.40
35497;DHT22;21609;49.298;6.844;2023-11-21T01:34:36;19.20;57.40
35497;DHT22;21609;49.298;6.844;2023-11-21T01:37:02;19.10;56.50
35497;DHT22;21609;49.298;6.844;2023-11-21T01:39:30;19.10;57.00
35497;DHT22;21609;49.298;6.844;2023-11-21T01:41:55;19.10;57.40
35497;DHT22;21609;49.298;6.844;2023-11-21T01:44:22;19.10;56.30
35497;DHT22;21609;49.298;6.844;2023-11-21T01:46:50;19.10;56.90
35497;DHT22;21609;49.298;6.844;2023-11-21T01:49:16;19.10;56.30
35497;DHT22;21609;49.298;6.844;2023-11-21T01:51:47;19.10;56.40
35497;DHT22;21609;49.298;6.844;2023-11-21T01:54:14;19.10;56.10
35497;DHT22;21609;49.298;6.844;2023-11-21T01:56:40;19.10;56.10
35497;DHT22;21609;49.298;6.844;2023-11-21T01:59:06;19.00;56.20
35497;DHT22;21609;49.298;6.844;2023-11-21T02:01:33;19.00;56.00
35497;DHT22;21609;49.298;6.844;2023-11-21T02:03:59;19.00;56.10
35497;DHT22;21609;49.298;6.844;2023-11-21T02:06:24;19.00;56.10
35497;DHT22;21609;49.298;6.844;2023-11-21T02:08:51;19.00;56.10
35497;DHT22;21609;49.298;6.844;2023-11-21T02:11:17;19.00;56.10
35497;DHT22;21609;49.298;6.844;2023-11-21T02:13:44;19.00;56.10
35497;DHT22;21609;49.298;6.844;2023-11-21T02:16:11;19.00;56.00
35497;DHT22;21609;49.298;6.844;2023-11-21T02:18:38;19.00;56.30
35497;DHT22;21609;49.298;6.844;2023-11-21T02:21:04;19.00;56.20
35497;DHT22;21609;49.298;6.844;2023-11-21T02:23:30;19.00;56.00
35497;DHT22;21609;49.298;6.844;2023-11-21T02:25:56;18.90;56.00
35497;DHT22;21609;49.298;6.844;2023-11-21T02:28:22;18.90;56.00
35497;DHT22;21609;49.298;6.844;2023-11-21T02:30:51;18.90;56.00
35497;DHT22;21609;49.298;6.844;2023-11-21T02:33:21;18.90;56.10
35497;DHT22;21609;49.298;6.844;2023-11-21T02:35:47;18.90;56.00
35497;DHT22;21609;49.298;6.844;2023-11-21T02:38:12;18.90;56.20
35497;DHT22;21609;49.298;6.844;2023-11-21T02:40:38;18.90;56.00
35497;DHT22;21609;49.298;6.844;2023-11-21T02:43:03;18.80;56.10
35497;DHT22;21609;49.298;6.844;2023-11-21T02:45:31;18.80;56.00
35497;DHT22;21609;49.298;6.844;2023-11-21T02:47:57;18.80;56.10
35497;DHT22;21609;49.298;6.844;2023-11-21T02:50:23;18.80;56.20
35497;DHT22;21609;49.298;6.844;2023-11-21T02:55:24;18.80;56.30
35497;DHT22;21609;49.298;6.844;2023-11-21T02:57:50;18.80;56.20
35497;DHT22;21609;49.298;6.844;2023-11-21T03:00:16;18.80;56.20
35497;DHT22;21609;49.298;6.844;2023-11-21T03:02:42;18.80;56.20
35497;DHT22;21609;49.298;6.844;2023-11-21T03:05:09;18.80;56.40
35497;DHT22;21609;49.298;6.844;2023-11-21T03:07:36;18.80;56.20
35497;DHT22;21609;49.298;6.844;2023-11-21T03:10:02;18.70;56.10
35497;DHT22;21609;49.298;6.844;2023-11-21T03:12:29;18.80;56.10
35497;DHT22;21609;49.298;6.844;2023-11-21T03:14:55;18.70;56.10
35497;DHT22;21609;49.298;6.844;2023-11-21T03:17:21;18.70;56.10
35497;DHT22;21609;49.298;6.844;2023-11-21T03:19:46;18.70;56.10
35497;DHT22;21609;49.298;6.844;2023-11-21T03:22:12;18.70;56.20
35497;DHT22;21609;49.298;6.844;2023-11-21T03:24:38;18.70;56.10
35497;DHT22;21609;49.298;6.844;2023-11-21T03:27:04;18.70;56.20
35497;DHT22;21609;49.298;6.844;2023-11-21T03:29:30;18.70;56.30
35497;DHT22;21609;49.298;6.844;2023-11-21T03:31:55;18.70;56.30
35497;DHT22;21609;49.298;6.844;2023-11-21T03:34:25;18.60;56.20
35497;DHT22;21609;49.298;6.844;2023-11-21T03:36:51;18.60;56.30
35497;DHT22;21609;49.298;6.844;2023-11-21T03:39:18;18.60;56.20
35497;DHT22;21609;49.298;6.844;2023-11-21T03:41:44;18.60;56.30
35497;DHT22;21609;49.298;6.844;2023-11-21T03:44:10;18.60;56.30
35497;DHT22;21609;49.298;6.844;2023-11-21T03:46:36;18.60;56.70
35497;DHT22;21609;49.298;6.844;2023-11-21T03:49:01;18.60;56.30
35497;DHT22;21609;49.298;6.844;2023-11-21T03:51:27;18.60;56.20
35497;DHT22;21609;49.298;6.844;2023-11-21T03:53:53;18.60;56.50
35497;DHT22;21609;49.298;6.844;2023-11-21T03:56:19;18.60;56.20
35497;DHT22;21609;49.298;6.844;2023-11-21T03:58:47;18.60;56.30
35497;DHT22;21609;49.298;6.844;2023-11-21T04:01:21;18.60;56.40
35497;DHT22;21609;49.298;6.844;2023-11-21T04:03:48;18.50;56.40
35497;DHT22;21609;49.298;6.844;2023-11-21T04:06:13;18.50;56.40
35497;DHT22;21609;49.298;6.844;2023-11-21T04:08:39;18.50;56.40
35497;DHT22;21609;49.298;6.844;2023-11-21T04:11:04;18.50;56.30
35497;DHT22;21609;49.298;6.844;2023-11-21T04:13:30;18.50;56.50
35497;DHT22;21609;49.298;6.844;2023-11-21T04:15:56;18.50;56.30
35497;DHT22;21609;49.298;6.844;2023-11-21T04:18:21;18.50;56.70
35497;DHT22;21609;49.298;6.844;2023-11-21T04:20:48;18.50;56.60
35497;DHT22;21609;49.298;6.844;2023-11-21T04:23:14;18.50;56.50
35497;DHT22;21609;49.298;6.844;2023-11-21T04:25:40;18.50;56.50
35497;DHT22;21609;49.298;6.844;2023-11-21T04:28:06;18.50;56.40
35497;DHT22;21609;49.298;6.844;2023-11-21T04:30:31;18.50;56.70
35497;DHT22;21609;49.298;6.844;2023-11-21T04:32:58;18.50;56.50
35497;DHT22;21609;49.298;6.844;2023-11-21T04:35:24;18.40;56.50
35497;DHT22;21609;49.298;6.844;2023-11-21T04:37:49;18.40;56.40
35497;DHT22;21609;49.298;6.844;2023-11-21T04:40:16;18.40;56.50
35497;DHT22;21609;49.298;6.844;2023-11-21T04:42:42;18.40;56.70
35497;DHT22;21609;49.298;6.844;2023-11-21T04:45:08;18.40;56.60
35497;DHT22;21609;49.298;6.844;2023-11-21T04:47:35;18.40;56.70
35497;DHT22;21609;49.298;6.844;2023-11-21T04:50:01;18.40;56.70
35497;DHT22;21609;49.298;6.844;2023-11-21T04:52:27;18.40;56.50
35497;DHT22;21609;49.298;6.844;2023-11-21T04:54:52;18.40;56.60
35497;DHT22;21609;49.298;6.844;2023-11-21T04:57:20;18.40;56.50
35497;DHT22;21609;49.298;6.844;2023-11-21T04:59:45;18.40;56.60
35497;DHT22;21609;49.298;6.844;2023-11-21T05:02:11;18.40;56.60
35497;DHT22;21609;49.298;6.844;2023-11-21T05:04:37;18.40;56.60
35497;DHT22;21609;49.298;6.844;2023-11-21T05:07:03;18.40;56.60
35497;DHT22;21609;49.298;6.844;2023-11-21T05:09:29;18.30;56.50
35497;DHT22;21609;49.298;6.844;2023-11-21T05:11:57;18.30;56.60
35497;DHT22;21609;49.298;6.844;2023-11-21T05:14:23;18.30;56.70
35497;DHT22;21609;49.298;6.844;2023-11-21T05:16:48;18.30;57.00
35497;DHT22;21609;49.298;6.844;2023-11-21T05:19:16;18.30;56.70
35497;DHT22;21609;49.298;6.844;2023-11-21T05:21:41;18.30;56.70
35497;DHT22;21609;49.298;6.844;2023-11-21T05:24:07;18.30;57.10
35497;DHT22;21609;49.298;6.844;2023-11-21T05:26:33;18.30;56.50
35497;DHT22;21609;49.298;6.844;2023-11-21T05:28:58;18.30;56.60
35497;DHT22;21609;49.298;6.844;2023-11-21T05:31:24;18.30;57.00
35497;DHT22;21609;49.298;6.844;2023-11-21T05:33:49;18.30;56.90
35497;DHT22;21609;49.298;6.844;2023-11-21T05:36:15;18.30;56.90
35497;DHT22;21609;49.298;6.844;2023-11-21T05:38:40;18.30;57.00
35497;DHT22;21609;49.298;6.844;2023-11-21T05:41:07;18.30;56.80
35497;DHT22;21609;49.298;6.844;2023-11-21T05:43:33;18.20;56.90
35497;DHT22;21609;49.298;6.844;2023-11-21T05:46:01;18.20;56.70
35497;DHT22;21609;49.298;6.844;2023-11-21T05:48:26;18.20;56.70
35497;DHT22;21609;49.298;6.844;2023-11-21T05:50:52;18.20;56.70
35497;DHT22;21609;49.298;6.844;2023-11-21T05:53:18;18.20;57.20
35497;DHT22;21609;49.298;6.844;2023-11-21T05:55:43;18.20;56.90
35497;DHT22;21609;49.298;6.844;2023-11-21T05:58:09;18.20;56.80
35497;DHT22;21609;49.298;6.844;2023-11-21T06:00:34;18.20;56.70
35497;DHT22;21609;49.298;6.844;2023-11-21T06:03:00;18.20;56.70
35497;DHT22;21609;49.298;6.844;2023-11-21T06:05:26;18.20;56.80
35497;DHT22;21609;49.298;6.844;2023-11-21T06:07:55;18.20;57.00
35497;DHT22;21609;49.298;6.844;2023-11-21T06:10:24;18.20;57.00
35497;DHT22;21609;49.298;6.844;2023-11-21T06:12:50;18.20;57.10
35497;DHT22;21609;49.298;6.844;2023-11-21T06:15:16;18.20;57.30
35497;DHT22;21609;49.298;6.844;2023-11-21T06:17:44;18.20;57.80
35497;DHT22;21609;49.298;6.844;2023-11-21T06:20:14;18.20;57.30
35497;DHT22;21609;49.298;6.844;2023-11-21T06:22:45;18.10;56.90
35497;DHT22;21609;49.298;6.844;2023-11-21T06:25:12;18.10;56.90
35497;DHT22;21609;49.298;6.844;2023-11-21T06:27:40;18.10;58.10
35497;DHT22;21609;49.298;6.844;2023-11-21T06:30:06;18.10;57.90
35497;DHT22;21609;49.298;6.844;2023-11-21T06:32:34;18.10;57.10
35497;DHT22;21609;49.298;6.844;2023-11-21T06:35:00;18.10;57.00
35497;DHT22;21609;49.298;6.844;2023-11-21T06:37:27;18.10;57.30
35497;DHT22;21609;49.298;6.844;2023-11-21T06:39:53;18.10;57.30
35497;DHT22;21609;49.298;6.844;2023-11-21T06:42:19;18.10;56.90
35497;DHT22;21609;49.298;6.844;2023-11-21T06:44:45;18.10;57.10
35497;DHT22;21609;49.298;6.844;2023-11-21T06:47:11;18.10;57.50
35497;DHT22;21609;49.298;6.844;2023-11-21T06:49:36;18.10;57.20
35497;DHT22;21609;49.298;6.844;2023-11-21T06:52:04;18.10;57.20
35497;DHT22;21609;49.298;6.844;2023-11-21T06:54:31;18.00;57.20
35497;DHT22;21609;49.298;6.844;2023-11-21T06:56:56;18.00;57.00
35497;DHT22;21609;49.298;6.844;2023-11-21T06:59:22;18.00;57.30
35497;DHT22;21609;49.298;6.844;2023-11-21T07:01:47;18.10;57.60
35497;DHT22;21609;49.298;6.844;2023-11-21T07:04:13;18.10;57.50
35497;DHT22;21609;49.298;6.844;2023-11-21T07:06:38;18.00;57.00
35497;DHT22;21609;49.298;6.844;2023-11-21T07:09:04;18.00;57.30
35497;DHT22;21609;49.298;6.844;2023-11-21T07:11:30;18.00;57.10
35497;DHT22;21609;49.298;6.844;2023-11-21T07:13:55;18.00;57.90
35497;DHT22;21609;49.298;6.844;2023-11-21T07:16:21;18.00;57.90
35497;DHT22;21609;49.298;6.844;2023-11-21T07:18:47;18.00;58.40
35497;DHT22;21609;49.298;6.844;2023-11-21T07:21:14;18.00;59.00
35497;DHT22;21609;49.298;6.844;2023-11-21T07:23:41;18.00;59.40
35497;DHT22;21609;49.298;6.844;2023-11-21T07:26:07;18.10;58.50
35497;DHT22;21609;49.298;6.844;2023-11-21T07:28:36;18.20;57.60
35497;DHT22;21609;49.298;6.844;2023-11-21T07:31:01;18.30;57.20
35497;DHT22;21609;49.298;6.844;2023-11-21T07:33:28;18.50;56.90
35497;DHT22;21609;49.298;6.844;2023-11-21T07:35:54;18.50;56.80
35497;DHT22;21609;49.298;6.844;2023-11-21T07:38:19;18.60;57.20
35497;DHT22;21609;49.298;6.844;2023-11-21T07:40:45;18.70;56.60
35497;DHT22;21609;49.298;6.844;2023-11-21T07:43:10;18.80;56.50
35497;DHT22;21609;49.298;6.844;2023-11-21T07:45:36;18.80;57.10
35497;DHT22;21609;49.298;6.844;2023-11-21T07:48:02;18.80;56.50
35497;DHT22;21609;49.298;6.844;2023-11-21T07:50:30;18.90;56.60
35497;DHT22;21609;49.298;6.844;2023-11-21T07:52:56;18.80;56.50
35497;DHT22;21609;49.298;6.844;2023-11-21T07:55:23;18.90;56.80
35497;DHT22;21609;49.298;6.844;2023-11-21T07:57:50;18.90;56.90
35497;DHT22;21609;49.298;6.844;2023-11-21T08:00:15;18.90;56.80
35497;DHT22;21609;49.298;6.844;2023-11-21T08:02:41;19.00;57.00
35497;DHT22;21609;49.298;6.844;2023-11-21T08:05:11;19.00;56.90
35497;DHT22;21609;49.298;6.844;2023-11-21T08:07:38;19.10;56.90
35497;DHT22;21609;49.298;6.844;2023-11-21T08:10:04;19.10;56.70
35497;DHT22;21609;49.298;6.844;2023-11-21T08:12:32;19.20;56.90
35497;DHT22;21609;49.298;6.844;2023-11-21T08:14:57;19.20;56.80
35497;DHT22;21609;49.298;6.844;2023-11-21T08:17:23;19.30;56.90
35497;DHT22;21609;49.298;6.844;2023-11-21T08:19:49;19.30;56.90
35497;DHT22;21609;49.298;6.844;2023-11-21T08:22:16;19.40;56.40
35497;DHT22;21609;49.298;6.844;2023-11-21T08:24:44;19.40;56.30
35497;DHT22;21609;49.298;6.844;2023-11-21T08:27:10;19.30;56.50
35497;DHT22;21609;49.298;6.844;2023-11-21T08:29:35;19.30;56.60
35497;DHT22;21609;49.298;6.844;2023-11-21T08:32:02;19.20;56.90
35497;DHT22;21609;49.298;6.844;2023-11-21T08:34:28;19.20;56.70
35497;DHT22;21609;49.298;6.844;2023-11-21T08:36:54;19.40;56.70
35497;DHT22;21609;49.298;6.844;2023-11-21T08:39:21;19.50;57.10
35497;DHT22;21609;49.298;6.844;2023-11-21T08:41:49;19.40;56.60
35497;DHT22;21609;49.298;6.844;2023-11-21T08:44:16;19.50;56.60
35497;DHT22;21609;49.298;6.844;2023-11-21T08:46:43;19.60;56.40
35497;DHT22;21609;49.298;6.844;2023-11-21T08:49:11;19.60;57.00
35497;DHT22;21609;49.298;6.844;2023-11-21T08:51:37;19.70;56.40
35497;DHT22;21609;49.298;6.844;2023-11-21T08:54:03;19.60;56.40
35497;DHT22;21609;49.298;6.844;2023-11-21T08:56:32;19.50;56.70
35497;DHT22;21609;49.298;6.844;2023-11-21T08:58:57;19.70;56.60
35497;DHT22;21609;49.298;6.844;2023-11-21T09:01:23;20.10;55.90
35497;DHT22;21609;49.298;6.844;2023-11-21T09:03:50;20.50;54.80
35497;DHT22;21609;49.298;6.844;2023-11-21T09:06:15;20.40;54.90
35497;DHT22;21609;49.298;6.844;2023-11-21T09:08:41;20.30;55.40
35497;DHT22;21609;49.298;6.844;2023-11-21T09:11:07;20.10;55.60
35497;DHT22;21609;49.298;6.844;2023-11-21T09:13:33;20.00;56.30
35497;DHT22;21609;49.298;6.844;2023-11-21T09:16:00;20.00;55.80
35497;DHT22;21609;49.298;6.844;2023-11-21T09:18:25;20.10;55.80
35497;DHT22;21609;49.298;6.844;2023-11-21T09:20:51;20.00;55.90
35497;DHT22;21609;49.298;6.844;2023-11-21T09:23:16;20.10;56.00
35497;DHT22;21609;49.298;6.844;2023-11-21T09:25:42;20.10;56.10
35497;DHT22;21609;49.298;6.844;2023-11-21T09:28:11;20.10;56.10
35497;DHT22;21609;49.298;6.844;2023-11-21T09:30:37;20.20;56.30
35497;DHT22;21609;49.298;6.844;2023-11-21T09:33:03;20.30;57.60
35497;DHT22;21609;49.298;6.844;2023-11-21T09:35:33;20.30;57.60
35497;DHT22;21609;49.298;6.844;2023-11-21T09:37:59;20.40;57.20
35497;DHT22;21609;49.298;6.844;2023-11-21T09:40:27;20.30;57.10
35497;DHT22;21609;49.298;6.844;2023-11-21T09:42:55;20.30;57.50
35497;DHT22;21609;49.298;6.844;2023-11-21T09:45:28;20.40;57.10
35497;DHT22;21609;49.298;6.844;2023-11-21T09:47:57;20.40;56.90
35497;DHT22;21609;49.298;6.844;2023-11-21T09:50:24;20.40;57.60
35497;DHT22;21609;49.298;6.844;2023-11-21T09:52:57;20.40;57.00
35497;DHT22;21609;49.298;6.844;2023-11-21T09:55:26;20.40;56.90
35497;DHT22;21609;49.298;6.844;2023-11-21T09:57:53;20.50;56.80
35497;DHT22;21609;49.298;6.844;2023-11-21T10:00:21;20.50;56.60
35497;DHT22;21609;49.298;6.844;2023-11-21T10:02:49;20.50;56.50
35497;DHT22;21609;49.298;6.844;2023-11-21T10:05:15;20.60;56.60
35497;DHT22;21609;49.298;6.844;2023-11-21T10:07:43;20.60;56.60
35497;DHT22;21609;49.298;6.844;2023-11-21T10:10:10;20.60;57.00
35497;DHT22;21609;49.298;6.844;2023-11-21T10:12:37;20.50;56.90
35497;DHT22;21609;49.298;6.844;2023-11-21T10:15:08;20.50;57.00
35497;DHT22;21609;49.298;6.844;2023-11-21T10:17:36;20.60;57.00
35497;DHT22;21609;49.298;6.844;2023-11-21T10:20:10;20.60;56.80
35497;DHT22;21609;49.298;6.844;2023-11-21T10:22:43;20.60;56.80
35497;DHT22;21609;49.298;6.844;2023-11-21T10:25:09;20.70;56.80
35497;DHT22;21609;49.298;6.844;2023-11-21T10:27:36;20.70;56.70
35497;DHT22;21609;49.298;6.844;2023-11-21T10:30:02;20.80;56.50
35497;DHT22;21609;49.298;6.844;2023-11-21T10:32:29;20.80;56.50
35497;DHT22;21609;49.298;6.844;2023-11-21T10:34:59;20.80;56.50
35497;DHT22;21609;49.298;6.844;2023-11-21T10:37:32;20.80;56.40
35497;DHT22;21609;49.298;6.844;2023-11-21T10:40:01;20.80;56.40
35497;DHT22;21609;49.298;6.844;2023-11-21T10:42:26;20.80;56.30
35497;DHT22;21609;49.298;6.844;2023-11-21T10:44:55;20.80;56.90
35497;DHT22;21609;49.298;6.844;2023-11-21T10:47:21;20.80;56.20
35497;DHT22;21609;49.298;6.844;2023-11-21T10:49:51;20.80;56.10
35497;DHT22;21609;49.298;6.844;2023-11-21T10:52:21;20.90;56.20
35497;DHT22;21609;49.298;6.844;2023-11-21T10:54:47;20.90;56.10
35497;DHT22;21609;49.298;6.844;2023-11-21T10:57:17;20.90;56.30
35497;DHT22;21609;49.298;6.844;2023-11-21T10:59:46;20.90;56.20
35497;DHT22;21609;49.298;6.844;2023-11-21T11:02:25;21.00;56.00
35497;DHT22;21609;49.298;6.844;2023-11-21T11:04:54;21.00;56.00
35497;DHT22;21609;49.298;6.844;2023-11-21T11:07:24;21.00;56.00
35497;DHT22;21609;49.298;6.844;2023-11-21T11:09:52;21.00;56.20
35497;DHT22;21609;49.298;6.844;2023-11-21T11:12:18;21.00;55.80
35497;DHT22;21609;49.298;6.844;2023-11-21T11:14:44;21.00;55.70
35497;DHT22;21609;49.298;6.844;2023-11-21T11:17:10;21.00;55.70
35497;DHT22;21609;49.298;6.844;2023-11-21T11:19:36;21.00;55.70
35497;DHT22;21609;49.298;6.844;2023-11-21T11:27:56;21.10;55.60
35497;DHT22;21609;49.298;6.844;2023-11-21T11:33:18;21.20;55.50
35497;DHT22;21609;49.298;6.844;2023-11-21T11:38:49;21.20;55.40
35497;DHT22;21609;49.298;6.844;2023-11-21T11:41:27;21.20;55.40
35497;DHT22;21609;49.298;6.844;2023-11-21T11:43:55;21.20;55.40
35497;DHT22;21609;49.298;6.844;2023-11-21T11:46:20;21.10;54.80
35497;DHT22;21609;49.298;6.844;2023-11-21T11:49:02;21.00;55.40
35497;DHT22;21609;49.298;6.844;2023-11-21T11:51:29;21.10;55.30
35497;DHT22;21609;49.298;6.844;2023-11-21T11:53:56;21.10;55.30
35497;DHT22;21609;49.298;6.844;2023-11-21T11:56:29;21.10;55.40
35497;DHT22;21609;49.298;6.844;2023-11-21T11:59:03;21.20;55.40
35497;DHT22;21609;49.298;6.844;2023-11-21T12:01:32;21.20;55.30
35497;DHT22;21609;49.298;6.844;2023-11-21T12:07:00;21.10;55.20
35497;DHT22;21609;49.298;6.844;2023-11-21T12:09:28;21.20;55.40
35497;DHT22;21609;49.298;6.844;2023-11-21T12:11:55;21.20;55.30
35497;DHT22;21609;49.298;6.844;2023-11-21T12:14:24;21.20;55.30
35497;DHT22;21609;49.298;6.844;2023-11-21T12:16:50;21.20;55.10
35497;DHT22;21609;49.298;6.844;2023-11-21T12:19:17;21.20;55.10
35497;DHT22;21609;49.298;6.844;2023-11-21T12:21:42;21.20;55.00
35497;DHT22;21609;49.298;6.844;2023-11-21T12:24:09;21.20;55.10
35497;DHT22;21609;49.298;6.844;2023-11-21T12:26:35;21.20;55.10
35497;DHT22;21609;49.298;6.844;2023-11-21T12:29:04;21.20;55.10
35497;DHT22;21609;49.298;6.844;2023-11-21T12:31:33;21.10;55.00
35497;DHT22;21609;49.298;6.844;2023-11-21T12:33:58;21.20;55.10
35497;DHT22;21609;49.298;6.844;2023-11-21T12:36:24;21.10;55.00
35497;DHT22;21609;49.298;6.844;2023-11-21T12:38:50;21.10;55.00
35497;DHT22;21609;49.298;6.844;2023-11-21T12:41:16;21.10;55.00
35497;DHT22;21609;49.298;6.844;2023-11-21T12:43:42;21.10;55.00
35497;DHT22;21609;49.298;6.844;2023-11-21T12:46:10;21.10;55.00
35497;DHT22;21609;49.298;6.844;2023-11-21T12:48:39;21.00;54.80
35497;DHT22;21609;49.298;6.844;2023-11-21T12:51:07;21.10;54.90
35497;DHT22;21609;49.298;6.844;2023-11-21T12:53:33;21.00;54.80
35497;DHT22;21609;49.298;6.844;2023-11-21T12:56:12;21.10;54.80
35497;DHT22;21609;49.298;6.844;2023-11-21T12:58:39;21.10;54.70
35497;DHT22;21609;49.298;6.844;2023-11-21T13:01:06;21.10;54.60
35497;DHT22;21609;49.298;6.844;2023-11-21T13:03:37;21.10;54.70
35497;DHT22;21609;49.298;6.844;2023-11-21T13:06:04;21.00;54.60
35497;DHT22;21609;49.298;6.844;2023-11-21T13:08:30;21.00;54.60
35497;DHT22;21609;49.298;6.844;2023-11-21T13:10:57;21.00;54.60
35497;DHT22;21609;49.298;6.844;2023-11-21T13:13:23;21.00;54.60
35497;DHT22;21609;49.298;6.844;2023-11-21T13:15:52;21.10;54.70
35497;DHT22;21609;49.298;6.844;2023-11-21T13:18:18;21.10;55.20
35497;DHT22;21609;49.298;6.844;2023-11-21T13:20:47;21.10;54.50
35497;DHT22;21609;49.298;6.844;2023-11-21T13:23:12;21.00;54.50
35497;DHT22;21609;49.298;6.844;2023-11-21T13:25:38;21.00;54.40
35497;DHT22;21609;49.298;6.844;2023-11-21T13:28:07;21.00;54.50
35497;DHT22;21609;49.298;6.844;2023-11-21T13:30:33;21.00;54.50
35497;DHT22;21609;49.298;6.844;2023-11-21T13:33:05;21.00;54.50
35497;DHT22;21609;49.298;6.844;2023-11-21T13:35:33;21.00;54.60
35497;DHT22;21609;49.298;6.844;2023-11-21T13:38:13;21.00;54.60
35497;DHT22;21609;49.298;6.844;2023-11-21T13:40:41;21.00;54.60
35497;DHT22;21609;49.298;6.844;2023-11-21T13:43:18;21.00;54.60
35497;DHT22;21609;49.298;6.844;2023-11-21T13:45:46;21.00;54.50
35497;DHT22;21609;49.298;6.844;2023-11-21T13:48:13;21.00;54.50
35497;DHT22;21609;49.298;6.844;2023-11-21T13:50:50;21.00;54.50
35497;DHT22;21609;49.298;6.844;2023-11-21T13:53:29;21.00;54.50
35497;DHT22;21609;49.298;6.844;2023-11-21T13:55:54;21.00;54.40
35497;DHT22;21609;49.298;6.844;2023-11-21T13:58:21;20.80;54.10
35497;DHT22;21609;49.298;6.844;2023-11-21T14:01:05;20.80;54.70
35497;DHT22;21609;49.298;6.844;2023-11-21T14:03:31;20.90;54.70
35497;DHT22;21609;49.298;6.844;2023-11-21T14:06:10;20.90;54.50
35497;DHT22;21609;49.298;6.844;2023-11-21T14:08:40;20.90;54.50
35497;DHT22;21609;49.298;6.844;2023-11-21T14:11:07;20.90;54.40
35497;DHT22;21609;49.298;6.844;2023-11-21T14:13:32;21.00;54.40
35497;DHT22;21609;49.298;6.844;2023-11-21T14:15:59;21.00;54.40
35497;DHT22;21609;49.298;6.844;2023-11-21T14:18:27;21.00;54.40
35497;DHT22;21609;49.298;6.844;2023-11-21T14:21:01;21.00;54.40
35497;DHT22;21609;49.298;6.844;2023-11-21T14:23:27;21.00;54.40
35497;DHT22;21609;49.298;6.844;2023-11-21T14:25:54;21.00;54.40
35497;DHT22;21609;49.298;6.844;2023-11-21T14:28:19;21.00;54.50
35497;DHT22;21609;49.298;6.844;2023-11-21T14:30:48;21.00;54.30
35497;DHT22;21609;49.298;6.844;2023-11-21T14:33:13;21.00;54.30
35497;DHT22;21609;49.298;6.844;2023-11-21T14:35:42;21.00;54.30
35497;DHT22;21609;49.298;6.844;2023-11-21T14:38:08;21.00;54.30
35497;DHT22;21609;49.298;6.844;2023-11-21T14:40:35;21.00;54.30
35497;DHT22;21609;49.298;6.844;2023-11-21T14:43:02;21.00;54.30
35497;DHT22;21609;49.298;6.844;2023-11-21T14:45:32;21.00;54.30
35497;DHT22;21609;49.298;6.844;2023-11-21T14:47:57;21.00;54.20
35497;DHT22;21609;49.298;6.844;2023-11-21T14:50:34;21.00;54.40
35497;DHT22;21609;49.298;6.844;2023-11-21T14:53:10;21.00;54.40
35497;DHT22;21609;49.298;6.844;2023-11-21T14:55:37;21.00;54.40
35497;DHT22;21609;49.298;6.844;2023-11-21T14:58:16;21.00;54.40
35497;DHT22;21609;49.298;6.844;2023-11-21T15:00:52;21.00;54.40
35497;DHT22;21609;49.298;6.844;2023-11-21T15:03:26;21.00;54.40
35497;DHT22;21609;49.298;6.844;2023-11-21T15:05:59;21.00;54.40
35497;DHT22;21609;49.298;6.844;2023-11-21T15:08:26;21.00;54.50
35497;DHT22;21609;49.298;6.844;2023-11-21T15:10:57;21.00;54.40
35497;DHT22;21609;49.298;6.844;2023-11-21T15:13:23;21.00;54.50
35497;DHT22;21609;49.298;6.844;2023-11-21T15:15:50;21.00;54.40
35497;DHT22;21609;49.298;6.844;2023-11-21T15:18:16;21.00;54.30
35497;DHT22;21609;49.298;6.844;2023-11-21T15:20:41;21.00;54.90
35497;DHT22;21609;49.298;6.844;2023-11-21T15:23:08;21.00;54.40
35497;DHT22;21609;49.298;6.844;2023-11-21T15:25:34;21.00;54.40
35497;DHT22;21609;49.298;6.844;2023-11-21T15:28:01;21.00;54.40
35497;DHT22;21609;49.298;6.844;2023-11-21T15:30:26;21.00;54.30
35497;DHT22;21609;49.298;6.844;2023-11-21T15:32:52;21.00;54.30
35497;DHT22;21609;49.298;6.844;2023-11-21T15:35:20;21.00;54.30
35497;DHT22;21609;49.298;6.844;2023-11-21T15:37:46;21.00;54.30
35497;DHT22;21609;49.298;6.844;2023-11-21T15:40:12;21.00;54.30
35497;DHT22;21609;49.298;6.844;2023-11-21T15:42:40;21.00;54.30
35497;DHT22;21609;49.298;6.844;2023-11-21T15:45:06;21.00;54.40
35497;DHT22;21609;49.298;6.844;2023-11-21T15:47:33;21.00;54.90